sensor_id;sensor_type;location;lat;lon;timestamp;pressure;altitude;pressure_sealevel;temperature;humidity
53715;BME280;39608;55.630;37.864;2023-02-19T00:01:29;97952.63;;;-5.92;61.31
53715;BME280;39608;55.630;37.864;2023-02-19T00:06:34;97950.47;;;-5.95;61.66
53715;BME280;39608;55.630;37.864;2023-02-19T00:11:37;97932.69;;;-6.00;61.70
53715;BME280;39608;55.630;37.864;2023-02-19T00:16:39;97936.00;;;-6.05;61.43
53715;BME280;39608;55.630;37.864;2023-02-19T00:21:42;97932.19;;;-6.09;61.67
53715;BME280;39608;55.630;37.864;2023-02-19T00:26:45;97936.69;;;-6.09;61.81
53715;BME280;39608;55.630;37.864;2023-02-19T00:31:47;97924.50;;;-6.10;61.81
53715;BME280;39608;55.630;37.864;2023-02-19T00:36:51;97927.53;;;-6.07;62.04
53715;BME280;39608;55.630;37.864;2023-02-19T00:41:53;97918.66;;;-6.12;62.13
53715;BME280;39608;55.630;37.864;2023-02-19T00:46:55;97914.78;;;-6.10;62.13
53715;BME280;39608;55.630;37.864;2023-02-19T00:51:58;97913.16;;;-6.11;62.25
53715;BME280;39608;55.630;37.864;2023-02-19T00:57:00;97909.13;;;-6.13;62.38
53715;BME280;39608;55.630;37.864;2023-02-19T01:02:02;97896.50;;;-6.11;61.83
53715;BME280;39608;55.630;37.864;2023-02-19T01:07:05;97897.56;;;-6.12;62.29
53715;BME280;39608;55.630;37.864;2023-02-19T01:12:07;97904.66;;;-6.13;62.11
53715;BME280;39608;55.630;37.864;2023-02-19T01:17:12;97890.91;;;-6.15;62.16
53715;BME280;39608;55.630;37.864;2023-02-19T01:22:15;97880.91;;;-6.13;62.30
53715;BME280;39608;55.630;37.864;2023-02-19T01:27:17;97878.50;;;-6.14;62.52
53715;BME280;39608;55.630;37.864;2023-02-19T01:32:19;97872.75;;;-6.23;62.49
53715;BME280;39608;55.630;37.864;2023-02-19T01:37:23;97871.50;;;-6.21;62.67
53715;BME280;39608;55.630;37.864;2023-02-19T01:42:25;97866.22;;;-6.21;62.77
53715;BME280;39608;55.630;37.864;2023-02-19T01:47:27;97866.69;;;-6.24;62.68
53715;BME280;39608;55.630;37.864;2023-02-19T01:52:32;97852.56;;;-6.29;62.63
53715;BME280;39608;55.630;37.864;2023-02-19T01:57:36;97857.94;;;-6.24;63.30
53715;BME280;39608;55.630;37.864;2023-02-19T02:02:41;97859.34;;;-6.22;63.32
53715;BME280;39608;55.630;37.864;2023-02-19T02:07:45;97854.16;;;-6.28;62.85
53715;BME280;39608;55.630;37.864;2023-02-19T02:13:05;97849.94;;;-6.29;63.25
53715;BME280;39608;55.630;37.864;2023-02-19T02:18:14;97853.38;;;-6.29;63.04
53715;BME280;39608;55.630;37.864;2023-02-19T02:23:26;97847.50;;;-6.31;63.38
53715;BME280;39608;55.630;37.864;2023-02-19T02:28:51;97846.47;;;-6.30;63.30
53715;BME280;39608;55.630;37.864;2023-02-19T02:34:10;97856.22;;;-6.30;63.43
53715;BME280;39608;55.630;37.864;2023-02-19T02:39:16;97841.88;;;-6.34;63.53
53715;BME280;39608;55.630;37.864;2023-02-19T02:44:20;97842.34;;;-6.38;63.36
53715;BME280;39608;55.630;37.864;2023-02-19T02:49:24;97846.38;;;-6.35;63.67
53715;BME280;39608;55.630;37.864;2023-02-19T02:54:28;97841.09;;;-6.35;63.60
53715;BME280;39608;55.630;37.864;2023-02-19T02:59:50;97822.84;;;-6.37;63.56
53715;BME280;39608;55.630;37.864;2023-02-19T03:04:58;97828.09;;;-6.37;63.30
53715;BME280;39608;55.630;37.864;2023-02-19T03:10:24;97827.31;;;-6.37;63.67
53715;BME280;39608;55.630;37.864;2023-02-19T03:15:30;97808.16;;;-6.44;63.36
53715;BME280;39608;55.630;37.864;2023-02-19T03:20:55;97812.75;;;-6.40;63.45
53715;BME280;39608;55.630;37.864;2023-02-19T03:25:58;97797.16;;;-6.41;63.76
53715;BME280;39608;55.630;37.864;2023-02-19T03:31:08;97808.94;;;-6.44;63.71
53715;BME280;39608;55.630;37.864;2023-02-19T03:36:14;97805.66;;;-6.39;63.79
53715;BME280;39608;55.630;37.864;2023-02-19T03:41:22;97804.72;;;-6.33;63.41
53715;BME280;39608;55.630;37.864;2023-02-19T03:46:33;97800.16;;;-6.38;63.69
53715;BME280;39608;55.630;37.864;2023-02-19T03:51:41;97793.63;;;-6.35;63.71
53715;BME280;39608;55.630;37.864;2023-02-19T03:56:48;97786.97;;;-6.38;63.68
53715;BME280;39608;55.630;37.864;2023-02-19T04:01:53;97784.78;;;-6.41;63.66
53715;BME280;39608;55.630;37.864;2023-02-19T04:06:59;97784.78;;;-6.41;63.58
53715;BME280;39608;55.630;37.864;2023-02-19T04:12:02;97786.84;;;-6.43;63.84
53715;BME280;39608;55.630;37.864;2023-02-19T04:17:07;97760.22;;;-6.53;63.97
53715;BME280;39608;55.630;37.864;2023-02-19T04:22:11;97782.94;;;-6.40;64.28
53715;BME280;39608;55.630;37.864;2023-02-19T04:27:14;97783.88;;;-6.34;63.74
53715;BME280;39608;55.630;37.864;2023-02-19T04:32:17;97782.16;;;-6.41;63.87
53715;BME280;39608;55.630;37.864;2023-02-19T04:37:20;97780.63;;;-6.37;64.00
53715;BME280;39608;55.630;37.864;2023-02-19T04:42:22;97764.94;;;-6.43;64.41
53715;BME280;39608;55.630;37.864;2023-02-19T04:47:24;97763.78;;;-6.47;64.68
53715;BME280;39608;55.630;37.864;2023-02-19T04:52:28;97760.91;;;-6.46;64.69
53715;BME280;39608;55.630;37.864;2023-02-19T04:57:30;97767.81;;;-6.45;64.48
53715;BME280;39608;55.630;37.864;2023-02-19T05:02:32;97761.63;;;-6.39;64.80
53715;BME280;39608;55.630;37.864;2023-02-19T05:07:35;97745.56;;;-6.49;65.00
53715;BME280;39608;55.630;37.864;2023-02-19T05:12:37;97757.47;;;-6.46;64.98
53715;BME280;39608;55.630;37.864;2023-02-19T05:17:39;97742.78;;;-6.42;65.25
53715;BME280;39608;55.630;37.864;2023-02-19T05:22:42;97752.78;;;-6.44;65.13
53715;BME280;39608;55.630;37.864;2023-02-19T05:27:44;97750.94;;;-6.44;64.92
53715;BME280;39608;55.630;37.864;2023-02-19T05:32:46;97749.91;;;-6.43;65.43
53715;BME280;39608;55.630;37.864;2023-02-19T05:37:50;97740.88;;;-6.35;65.40
53715;BME280;39608;55.630;37.864;2023-02-19T05:42:52;97733.75;;;-6.34;65.00
53715;BME280;39608;55.630;37.864;2023-02-19T05:47:54;97737.53;;;-6.30;65.49
53715;BME280;39608;55.630;37.864;2023-02-19T05:52:58;97735.81;;;-6.25;65.39
53715;BME280;39608;55.630;37.864;2023-02-19T05:58:00;97739.34;;;-6.31;65.50
53715;BME280;39608;55.630;37.864;2023-02-19T06:03:02;97737.19;;;-6.22;65.24
53715;BME280;39608;55.630;37.864;2023-02-19T06:08:06;97724.69;;;-6.15;65.59
53715;BME280;39608;55.630;37.864;2023-02-19T06:13:08;97734.88;;;-6.07;65.27
53715;BME280;39608;55.630;37.864;2023-02-19T06:18:10;97728.22;;;-5.97;65.12
53715;BME280;39608;55.630;37.864;2023-02-19T06:23:14;97731.63;;;-5.97;65.69
53715;BME280;39608;55.630;37.864;2023-02-19T06:28:16;97718.88;;;-5.88;65.56
53715;BME280;39608;55.630;37.864;2023-02-19T06:33:18;97731.47;;;-5.78;65.58
53715;BME280;39608;55.630;37.864;2023-02-19T06:38:21;97726.84;;;-5.59;65.33
53715;BME280;39608;55.630;37.864;2023-02-19T06:43:23;97721.81;;;-5.61;65.57
53715;BME280;39608;55.630;37.864;2023-02-19T06:48:26;97709.63;;;-5.62;65.03
53715;BME280;39608;55.630;37.864;2023-02-19T06:53:29;97714.00;;;-5.68;65.18
53715;BME280;39608;55.630;37.864;2023-02-19T06:58:32;97718.16;;;-5.72;65.52
53715;BME280;39608;55.630;37.864;2023-02-19T07:03:36;97708.75;;;-5.68;65.35
53715;BME280;39608;55.630;37.864;2023-02-19T07:08:39;97697.56;;;-5.58;65.62
53715;BME280;39608;55.630;37.864;2023-02-19T07:13:41;97706.88;;;-5.55;65.40
53715;BME280;39608;55.630;37.864;2023-02-19T07:18:43;97697.50;;;-5.46;65.36
53715;BME280;39608;55.630;37.864;2023-02-19T07:23:47;97694.84;;;-5.34;65.52
53715;BME280;39608;55.630;37.864;2023-02-19T07:28:50;97691.81;;;-5.26;65.47
53715;BME280;39608;55.630;37.864;2023-02-19T07:33:52;97694.53;;;-5.21;65.15
53715;BME280;39608;55.630;37.864;2023-02-19T07:38:57;97680.03;;;-5.18;65.14
53715;BME280;39608;55.630;37.864;2023-02-19T07:43:59;97676.28;;;-5.22;65.67
53715;BME280;39608;55.630;37.864;2023-02-19T07:49:01;97688.56;;;-5.16;65.17
53715;BME280;39608;55.630;37.864;2023-02-19T07:54:05;97654.50;;;-5.12;65.25
53715;BME280;39608;55.630;37.864;2023-02-19T07:59:07;97651.22;;;-5.20;65.37
53715;BME280;39608;55.630;37.864;2023-02-19T08:04:10;97660.28;;;-5.16;65.42
53715;BME280;39608;55.630;37.864;2023-02-19T08:09:14;97659.88;;;-5.24;65.70
53715;BME280;39608;55.630;37.864;2023-02-19T08:14:16;97652.00;;;-5.19;65.59
53715;BME280;39608;55.630;37.864;2023-02-19T08:19:18;97657.72;;;-5.10;65.70
53715;BME280;39608;55.630;37.864;2023-02-19T08:24:22;97659.75;;;-5.01;65.67
53715;BME280;39608;55.630;37.864;2023-02-19T08:29:25;97662.28;;;-4.89;65.77
53715;BME280;39608;55.630;37.864;2023-02-19T08:34:27;97653.88;;;-4.86;65.52
53715;BME280;39608;55.630;37.864;2023-02-19T08:39:31;97662.38;;;-4.67;65.42
53715;BME280;39608;55.630;37.864;2023-02-19T08:44:33;97656.19;;;-4.55;65.26
53715;BME280;39608;55.630;37.864;2023-02-19T08:49:35;97645.84;;;-4.57;65.23
53715;BME280;39608;55.630;37.864;2023-02-19T08:54:38;97640.56;;;-4.57;65.23
53715;BME280;39608;55.630;37.864;2023-02-19T08:59:40;97630.13;;;-4.64;65.39
53715;BME280;39608;55.630;37.864;2023-02-19T09:04:43;97635.22;;;-4.40;65.48
53715;BME280;39608;55.630;37.864;2023-02-19T09:09:46;97629.53;;;-4.32;65.23
53715;BME280;39608;55.630;37.864;2023-02-19T09:14:48;97621.13;;;-4.45;65.07
53715;BME280;39608;55.630;37.864;2023-02-19T09:19:50;97617.75;;;-4.41;65.04
53715;BME280;39608;55.630;37.864;2023-02-19T09:24:53;97617.38;;;-4.50;64.94
53715;BME280;39608;55.630;37.864;2023-02-19T09:29:55;97616.50;;;-4.55;65.00
53715;BME280;39608;55.630;37.864;2023-02-19T09:34:58;97608.81;;;-4.57;65.33
53715;BME280;39608;55.630;37.864;2023-02-19T09:40:02;97598.72;;;-4.60;65.25
53715;BME280;39608;55.630;37.864;2023-02-19T09:45:05;97593.69;;;-4.61;65.43
53715;BME280;39608;55.630;37.864;2023-02-19T09:50:08;97595.28;;;-4.60;65.42
53715;BME280;39608;55.630;37.864;2023-02-19T09:55:17;97579.88;;;-4.64;65.53
53715;BME280;39608;55.630;37.864;2023-02-19T10:00:25;97564.34;;;-4.60;65.29
53715;BME280;39608;55.630;37.864;2023-02-19T10:05:28;97583.00;;;-4.27;65.27
53715;BME280;39608;55.630;37.864;2023-02-19T10:10:34;97580.97;;;-4.20;65.14
53715;BME280;39608;55.630;37.864;2023-02-19T10:15:38;97552.69;;;-4.42;64.95
53715;BME280;39608;55.630;37.864;2023-02-19T10:20:42;97574.94;;;-4.38;65.09
53715;BME280;39608;55.630;37.864;2023-02-19T10:25:48;97554.63;;;-4.54;65.06
53715;BME280;39608;55.630;37.864;2023-02-19T10:30:53;97582.25;;;-4.45;65.43
53715;BME280;39608;55.630;37.864;2023-02-19T10:35:57;97576.06;;;-4.34;65.23
53715;BME280;39608;55.630;37.864;2023-02-19T10:41:03;97574.63;;;-4.19;65.49
53715;BME280;39608;55.630;37.864;2023-02-19T10:46:15;97579.06;;;-4.03;65.02
53715;BME280;39608;55.630;37.864;2023-02-19T10:51:18;97571.22;;;-3.92;64.84
53715;BME280;39608;55.630;37.864;2023-02-19T10:56:25;97560.06;;;-3.95;64.53
53715;BME280;39608;55.630;37.864;2023-02-19T11:01:28;97570.84;;;-3.79;64.72
53715;BME280;39608;55.630;37.864;2023-02-19T11:06:30;97559.88;;;-3.61;64.70
53715;BME280;39608;55.630;37.864;2023-02-19T11:11:35;97552.53;;;-3.53;64.33
53715;BME280;39608;55.630;37.864;2023-02-19T11:16:43;97564.28;;;-3.44;64.28
53715;BME280;39608;55.630;37.864;2023-02-19T11:21:47;97555.00;;;-3.41;64.66
53715;BME280;39608;55.630;37.864;2023-02-19T11:26:50;97560.69;;;-3.28;64.26
53715;BME280;39608;55.630;37.864;2023-02-19T11:31:52;97562.97;;;-3.04;63.89
53715;BME280;39608;55.630;37.864;2023-02-19T11:37:08;97552.56;;;-2.73;63.63
53715;BME280;39608;55.630;37.864;2023-02-19T11:42:26;97536.66;;;-2.73;63.29
53715;BME280;39608;55.630;37.864;2023-02-19T11:47:44;97519.81;;;-2.94;63.52
53715;BME280;39608;55.630;37.864;2023-02-19T11:53:02;97540.38;;;-2.74;63.31
53715;BME280;39608;55.630;37.864;2023-02-19T11:58:28;97533.81;;;-3.04;63.68
53715;BME280;39608;55.630;37.864;2023-02-19T12:03:54;97537.78;;;-3.44;63.31
53715;BME280;39608;55.630;37.864;2023-02-19T12:09:30;97542.25;;;-3.45;64.01
53715;BME280;39608;55.630;37.864;2023-02-19T12:15:15;97540.66;;;-3.46;64.17
53715;BME280;39608;55.630;37.864;2023-02-19T12:20:25;97529.34;;;-3.68;64.52
53715;BME280;39608;55.630;37.864;2023-02-19T12:25:45;97533.00;;;-3.74;64.33
53715;BME280;39608;55.630;37.864;2023-02-19T12:31:10;97513.03;;;-3.87;64.37
53715;BME280;39608;55.630;37.864;2023-02-19T12:36:19;97529.59;;;-3.70;64.12
53715;BME280;39608;55.630;37.864;2023-02-19T12:41:35;97535.88;;;-3.49;63.71
53715;BME280;39608;55.630;37.864;2023-02-19T12:46:47;97530.03;;;-3.51;63.52
53715;BME280;39608;55.630;37.864;2023-02-19T12:51:54;97540.53;;;-3.61;63.88
53715;BME280;39608;55.630;37.864;2023-02-19T12:57:00;97540.19;;;-3.70;63.84
53715;BME280;39608;55.630;37.864;2023-02-19T13:02:12;97546.00;;;-3.73;63.88
53715;BME280;39608;55.630;37.864;2023-02-19T13:07:18;97551.81;;;-3.76;63.97
53715;BME280;39608;55.630;37.864;2023-02-19T13:12:25;97537.13;;;-3.89;64.14
53715;BME280;39608;55.630;37.864;2023-02-19T13:17:36;97541.66;;;-3.84;63.84
53715;BME280;39608;55.630;37.864;2023-02-19T13:22:44;97548.59;;;-3.78;63.94
53715;BME280;39608;55.630;37.864;2023-02-19T13:28:15;97546.63;;;-3.88;63.65
53715;BME280;39608;55.630;37.864;2023-02-19T13:33:32;97542.16;;;-3.87;64.10
53715;BME280;39608;55.630;37.864;2023-02-19T13:38:38;97537.56;;;-3.97;64.06
53715;BME280;39608;55.630;37.864;2023-02-19T13:43:41;97540.06;;;-4.07;64.04
53715;BME280;39608;55.630;37.864;2023-02-19T13:48:47;97546.91;;;-4.12;63.87
53715;BME280;39608;55.630;37.864;2023-02-19T13:54:20;97545.88;;;-4.10;63.82
53715;BME280;39608;55.630;37.864;2023-02-19T13:59:36;97541.34;;;-4.15;63.85
53715;BME280;39608;55.630;37.864;2023-02-19T14:04:45;97527.19;;;-4.26;63.92
53715;BME280;39608;55.630;37.864;2023-02-19T14:09:51;97534.81;;;-4.30;64.04
53715;BME280;39608;55.630;37.864;2023-02-19T14:14:54;97524.00;;;-4.28;64.08
53715;BME280;39608;55.630;37.864;2023-02-19T14:20:00;97507.31;;;-4.28;64.29
53715;BME280;39608;55.630;37.864;2023-02-19T14:25:16;97496.63;;;-4.39;64.32
53715;BME280;39608;55.630;37.864;2023-02-19T14:30:20;97506.38;;;-4.39;64.57
53715;BME280;39608;55.630;37.864;2023-02-19T14:35:25;97511.38;;;-4.43;64.40
53715;BME280;39608;55.630;37.864;2023-02-19T14:40:37;97513.28;;;-4.38;64.55
53715;BME280;39608;55.630;37.864;2023-02-19T14:45:43;97509.53;;;-4.42;64.61
53715;BME280;39608;55.630;37.864;2023-02-19T14:50:50;97487.06;;;-4.62;64.54
53715;BME280;39608;55.630;37.864;2023-02-19T14:55:56;97500.38;;;-4.57;64.75
53715;BME280;39608;55.630;37.864;2023-02-19T15:01:00;97508.72;;;-4.65;64.51
53715;BME280;39608;55.630;37.864;2023-02-19T15:06:04;97503.78;;;-4.78;64.63
53715;BME280;39608;55.630;37.864;2023-02-19T15:11:11;97504.28;;;-4.82;65.00
53715;BME280;39608;55.630;37.864;2023-02-19T15:16:17;97495.56;;;-4.82;64.95
53715;BME280;39608;55.630;37.864;2023-02-19T15:21:22;97500.06;;;-4.83;64.68
53715;BME280;39608;55.630;37.864;2023-02-19T15:26:32;97502.03;;;-4.73;65.21
53715;BME280;39608;55.630;37.864;2023-02-19T15:31:35;97488.19;;;-4.80;65.17
53715;BME280;39608;55.630;37.864;2023-02-19T15:36:37;97492.19;;;-4.77;64.84
53715;BME280;39608;55.630;37.864;2023-02-19T15:41:41;97495.84;;;-4.78;64.93
53715;BME280;39608;55.630;37.864;2023-02-19T15:46:44;97474.34;;;-4.87;65.09
53715;BME280;39608;55.630;37.864;2023-02-19T15:51:51;97474.97;;;-4.80;65.12
53715;BME280;39608;55.630;37.864;2023-02-19T15:56:58;97477.06;;;-4.82;64.89
53715;BME280;39608;55.630;37.864;2023-02-19T16:02:03;97471.44;;;-4.86;65.13
53715;BME280;39608;55.630;37.864;2023-02-19T16:07:24;97471.44;;;-4.86;64.92
53715;BME280;39608;55.630;37.864;2023-02-19T16:12:28;97458.13;;;-4.96;65.20
53715;BME280;39608;55.630;37.864;2023-02-19T16:17:30;97465.97;;;-5.01;65.11
53715;BME280;39608;55.630;37.864;2023-02-19T16:22:39;97436.69;;;-5.17;64.97
53715;BME280;39608;55.630;37.864;2023-02-19T16:27:43;97456.22;;;-5.01;65.50
53715;BME280;39608;55.630;37.864;2023-02-19T16:32:45;97457.25;;;-5.02;65.22
53715;BME280;39608;55.630;37.864;2023-02-19T16:37:56;97453.31;;;-4.99;65.59
53715;BME280;39608;55.630;37.864;2023-02-19T16:43:27;97459.47;;;-4.93;65.73
53715;BME280;39608;55.630;37.864;2023-02-19T16:48:30;97455.72;;;-4.97;65.40
53715;BME280;39608;55.630;37.864;2023-02-19T16:53:34;97450.69;;;-4.99;65.53
53715;BME280;39608;55.630;37.864;2023-02-19T16:58:37;97457.06;;;-4.95;65.84
53715;BME280;39608;55.630;37.864;2023-02-19T17:03:39;97457.94;;;-4.89;65.42
53715;BME280;39608;55.630;37.864;2023-02-19T17:08:43;97443.44;;;-4.87;65.76
53715;BME280;39608;55.630;37.864;2023-02-19T17:13:46;97450.31;;;-4.86;65.86
53715;BME280;39608;55.630;37.864;2023-02-19T17:18:49;97442.09;;;-4.89;65.63
53715;BME280;39608;55.630;37.864;2023-02-19T17:23:52;97455.91;;;-4.82;65.77
53715;BME280;39608;55.630;37.864;2023-02-19T17:28:57;97446.94;;;-4.81;66.11
53715;BME280;39608;55.630;37.864;2023-02-19T17:33:59;97438.75;;;-4.79;65.92
53715;BME280;39608;55.630;37.864;2023-02-19T17:39:02;97435.13;;;-4.73;66.00
53715;BME280;39608;55.630;37.864;2023-02-19T17:44:06;97437.56;;;-4.67;66.20
53715;BME280;39608;55.630;37.864;2023-02-19T17:49:09;97427.78;;;-4.66;66.01
53715;BME280;39608;55.630;37.864;2023-02-19T17:54:13;97427.84;;;-4.61;66.24
53715;BME280;39608;55.630;37.864;2023-02-19T17:59:17;97425.81;;;-4.54;65.93
53715;BME280;39608;55.630;37.864;2023-02-19T18:04:19;97420.25;;;-4.57;66.03
53715;BME280;39608;55.630;37.864;2023-02-19T18:09:24;97428.72;;;-4.55;65.93
53715;BME280;39608;55.630;37.864;2023-02-19T18:14:27;97419.66;;;-4.59;66.20
53715;BME280;39608;55.630;37.864;2023-02-19T18:19:30;97417.19;;;-4.71;66.02
53715;BME280;39608;55.630;37.864;2023-02-19T18:24:32;97385.22;;;-4.92;66.26
53715;BME280;39608;55.630;37.864;2023-02-19T18:29:36;97412.06;;;-4.78;66.39
53715;BME280;39608;55.630;37.864;2023-02-19T18:34:38;97409.44;;;-4.78;66.24
53715;BME280;39608;55.630;37.864;2023-02-19T18:39:40;97413.47;;;-4.70;66.09
53715;BME280;39608;55.630;37.864;2023-02-19T18:44:47;97417.72;;;-4.69;66.00
53715;BME280;39608;55.630;37.864;2023-02-19T18:49:51;97397.56;;;-4.75;65.99
53715;BME280;39608;55.630;37.864;2023-02-19T18:54:55;97403.88;;;-4.76;66.18
53715;BME280;39608;55.630;37.864;2023-02-19T18:59:59;97368.50;;;-4.97;66.44
53715;BME280;39608;55.630;37.864;2023-02-19T19:05:01;97399.34;;;-4.81;66.16
53715;BME280;39608;55.630;37.864;2023-02-19T19:10:05;97391.66;;;-4.83;66.25
53715;BME280;39608;55.630;37.864;2023-02-19T19:15:09;97396.47;;;-4.79;66.23
53715;BME280;39608;55.630;37.864;2023-02-19T19:20:12;97392.75;;;-4.78;66.25
53715;BME280;39608;55.630;37.864;2023-02-19T19:25:14;97384.53;;;-4.82;66.38
53715;BME280;39608;55.630;37.864;2023-02-19T19:30:20;97370.75;;;-4.84;66.15
53715;BME280;39608;55.630;37.864;2023-02-19T19:35:23;97381.63;;;-4.81;66.30
53715;BME280;39608;55.630;37.864;2023-02-19T19:40:28;97387.47;;;-4.78;66.37
53715;BME280;39608;55.630;37.864;2023-02-19T19:45:31;97383.78;;;-4.77;66.41
53715;BME280;39608;55.630;37.864;2023-02-19T19:50:33;97386.16;;;-4.76;66.27
53715;BME280;39608;55.630;37.864;2023-02-19T19:55:35;97388.34;;;-4.73;66.37
53715;BME280;39608;55.630;37.864;2023-02-19T20:00:39;97389.38;;;-4.74;66.50
53715;BME280;39608;55.630;37.864;2023-02-19T20:05:43;97378.81;;;-4.74;66.53
53715;BME280;39608;55.630;37.864;2023-02-19T20:10:46;97386.28;;;-4.66;66.16
53715;BME280;39608;55.630;37.864;2023-02-19T20:15:50;97375.91;;;-4.72;66.32
53715;BME280;39608;55.630;37.864;2023-02-19T20:20:52;97374.31;;;-4.73;66.45
53715;BME280;39608;55.630;37.864;2023-02-19T20:25:54;97371.97;;;-4.70;66.50
53715;BME280;39608;55.630;37.864;2023-02-19T20:30:58;97372.50;;;-4.68;66.79
53715;BME280;39608;55.630;37.864;2023-02-19T20:36:00;97374.66;;;-4.65;66.70
53715;BME280;39608;55.630;37.864;2023-02-19T20:41:03;97375.22;;;-4.62;66.54
53715;BME280;39608;55.630;37.864;2023-02-19T20:46:07;97373.09;;;-4.60;66.63
53715;BME280;39608;55.630;37.864;2023-02-19T20:51:09;97372.13;;;-4.54;66.45
53715;BME280;39608;55.630;37.864;2023-02-19T20:56:11;97379.03;;;-4.53;66.43
53715;BME280;39608;55.630;37.864;2023-02-19T21:01:14;97375.31;;;-4.52;66.81
53715;BME280;39608;55.630;37.864;2023-02-19T21:06:16;97373.72;;;-4.53;66.76
53715;BME280;39608;55.630;37.864;2023-02-19T21:11:18;97368.38;;;-4.58;66.44
53715;BME280;39608;55.630;37.864;2023-02-19T21:16:22;97375.06;;;-4.51;66.80
53715;BME280;39608;55.630;37.864;2023-02-19T21:21:24;97369.75;;;-4.51;66.50
53715;BME280;39608;55.630;37.864;2023-02-19T21:26:34;97365.53;;;-4.52;66.74
53715;BME280;39608;55.630;37.864;2023-02-19T21:31:42;97368.72;;;-4.50;66.80
53715;BME280;39608;55.630;37.864;2023-02-19T21:36:45;97375.88;;;-4.50;66.61
53715;BME280;39608;55.630;37.864;2023-02-19T21:41:47;97360.97;;;-4.56;66.37
53715;BME280;39608;55.630;37.864;2023-02-19T21:46:50;97366.84;;;-4.54;66.71
53715;BME280;39608;55.630;37.864;2023-02-19T21:51:52;97369.72;;;-4.56;66.81
53715;BME280;39608;55.630;37.864;2023-02-19T21:56:54;97373.72;;;-4.53;66.54
53715;BME280;39608;55.630;37.864;2023-02-19T22:01:58;97371.09;;;-4.53;66.64
53715;BME280;39608;55.630;37.864;2023-02-19T22:07:00;97374.78;;;-4.54;66.69
53715;BME280;39608;55.630;37.864;2023-02-19T22:12:02;97365.53;;;-4.52;66.60
53715;BME280;39608;55.630;37.864;2023-02-19T22:17:05;97365.22;;;-4.55;66.53
53715;BME280;39608;55.630;37.864;2023-02-19T22:22:07;97362.59;;;-4.55;66.78
53715;BME280;39608;55.630;37.864;2023-02-19T22:27:10;97360.00;;;-4.50;66.66
53715;BME280;39608;55.630;37.864;2023-02-19T22:32:13;97366.63;;;-4.48;66.70
53715;BME280;39608;55.630;37.864;2023-02-19T22:37:15;97363.22;;;-4.43;66.75
53715;BME280;39608;55.630;37.864;2023-02-19T22:42:17;97377.25;;;-4.42;66.60
53715;BME280;39608;55.630;37.864;2023-02-19T22:47:21;97366.38;;;-4.46;66.63
53715;BME280;39608;55.630;37.864;2023-02-19T22:52:23;97364.72;;;-4.52;66.60
53715;BME280;39608;55.630;37.864;2023-02-19T22:57:27;97361.53;;;-4.54;66.63
53715;BME280;39608;55.630;37.864;2023-02-19T23:02:30;97369.16;;;-4.58;66.49
53715;BME280;39608;55.630;37.864;2023-02-19T23:07:33;97366.19;;;-4.67;66.74
53715;BME280;39608;55.630;37.864;2023-02-19T23:12:35;97370.38;;;-4.71;66.62
53715;BME280;39608;55.630;37.864;2023-02-19T23:17:39;97372.41;;;-4.78;66.82
53715;BME280;39608;55.630;37.864;2023-02-19T23:22:42;97368.00;;;-4.94;66.87
53715;BME280;39608;55.630;37.864;2023-02-19T23:27:44;97380.69;;;-4.96;66.74
53715;BME280;39608;55.630;37.864;2023-02-19T23:32:47;97382.56;;;-4.92;66.86
53715;BME280;39608;55.630;37.864;2023-02-19T23:37:49;97369.00;;;-5.01;67.04
53715;BME280;39608;55.630;37.864;2023-02-19T23:42:51;97392.28;;;-4.97;66.85
53715;BME280;39608;55.630;37.864;2023-02-19T23:47:56;97382.75;;;-4.99;67.08
53715;BME280;39608;55.630;37.864;2023-02-19T23:52:58;97384.53;;;-5.04;66.86
53715;BME280;39608;55.630;37.864;2023-02-19T23:58:00;97385.03;;;-5.07;66.70
